Thunderstorms From: 26-05-2018 05:06 Until: 27-05-2018 05:00 warning for: Thunderstorms Level: Yellow info button

Although rather usual in this region, locally or potentially dangerous phenomena are expected. (such as local winds, summer thunderstorms, rising streams or high waves) Be aware and pay attention to the latest weather updates, especially if you carry out activities exposed to weather or close to a stream or shoreline. 


Meteo18 Weather Cam more information Meteo18 Weather Cam


warning for Thunderstorms more information blitzortung!


Rain radar more information rain snow radar


Visit our other weather sites:

Template documentation
and downloads

And another site



Weather Underground History page Text

Daily Summary for June 17, 2017 Units:  Both    English   Metric
« Previous Day
Next Day »
Daily Weekly Monthly Yearly Custom
  High: Low: Average:
Temperature: TemperatureC °F /  -17.8 °C 12.5 °F /  -10.8 °C 19.8 °F /  -6.8 °C
Dew Point: DewpointC °F /  -17.8 °C 10.1 °F /  -12.2 °C 12.6 °F /  -10.8 °C
Humidity: Humidity % 47 % 65 %
Wind Speed: WindSpeedKMH mph /  0 km/h - 9.5 mph /  15.3 km/h
Wind Gust: WindSpeedGustKMH mph /  0 km/h - -
Wind:- - East
Pressure: PressurehPa in /  0 hPa 1024.3 in /  34682.8 hPa -
Precipitation: 0.0 in /  0 mm    
Historical Graphs
 
 
Tabular Data for June 17, 2017
Time Temperature Dew Point Pressure Wind Wind Speed Wind Gust Humidity Rainfall Rate (Hourly)
TemperatureC °F /  -17.8 °C DewpointC °F /  -17.8 °C PressurehPa in /  0 hPa Calm     Humidity % HourlyPrecipMM in /  0 mm
00:02 16.1 °F /  -8.8 °C 11.5 °F /  -11.4 °C 1027.3 in /  34784.4 hPa Calm   3.2 mph /  5.1 km/h 74 % 0.0 in /  0 mm
00:07 16.1 °F /  -8.8 °C 11.5 °F /  -11.4 °C 1027.3 in /  34784.4 hPa NNW 1.6 mph /  2.6 km/h 3.2 mph /  5.1 km/h 74 % 0.0 in /  0 mm
00:12 16.2 °F /  -8.8 °C 11.4 °F /  -11.4 °C 1027.3 in /  34784.4 hPa Calm   3.2 mph /  5.1 km/h 73 % 0.0 in /  0 mm
00:17 16.1 °F /  -8.8 °C 11.3 °F /  -11.5 °C 1027.3 in /  34784.4 hPa Calm   3.2 mph /  5.1 km/h 73 % 0.0 in /  0 mm
00:22 16.1 °F /  -8.8 °C 11.5 °F /  -11.4 °C 1027.3 in /  34784.4 hPa Calm   3.2 mph /  5.1 km/h 74 % 0.0 in /  0 mm
00:32 16.0 °F /  -8.9 °C 11.4 °F /  -11.4 °C 1027.3 in /  34784.4 hPa Calm   1.6 mph /  2.6 km/h 74 % 0.0 in /  0 mm
00:37 16.1 °F /  -8.8 °C 11.5 °F /  -11.4 °C 1027.3 in /  34784.4 hPa WNW 3.2 mph /  5.1 km/h 3.2 mph /  5.1 km/h 74 % 0.0 in /  0 mm
00:42 16.1 °F /  -8.8 °C 11.3 °F /  -11.5 °C 1027.3 in /  34784.4 hPa Calm   3.2 mph /  5.1 km/h 73 % 0.0 in /  0 mm
00:47 16.1 °F /  -8.8 °C 11.3 °F /  -11.5 °C 1027.3 in /  34784.4 hPa WNW 1.6 mph /  2.6 km/h 3.2 mph /  5.1 km/h 73 % 0.0 in /  0 mm
00:52 16.0 °F /  -8.9 °C 11.4 °F /  -11.4 °C 1027.3 in /  34784.4 hPa Calm   3.2 mph /  5.1 km/h 74 % 0.0 in /  0 mm
00:57 15.9 °F /  -8.9 °C 11.3 °F /  -11.5 °C 1027.3 in /  34784.4 hPa Calm   3.2 mph /  5.1 km/h 74 % 0.0 in /  0 mm
01:02 15.8 °F /  -9 °C 11.4 °F /  -11.4 °C 1027.3 in /  34784.4 hPa Calm   3.2 mph /  5.1 km/h 75 % 0.0 in /  0 mm
01:07 15.7 °F /  -9.1 °C 11.3 °F /  -11.5 °C 1027.3 in /  34784.4 hPa Calm   3.2 mph /  5.1 km/h 75 % 0.0 in /  0 mm
01:12 15.6 °F /  -9.1 °C 11.2 °F /  -11.6 °C 1027.3 in /  34784.4 hPa Calm   1.6 mph /  2.6 km/h 75 % 0.0 in /  0 mm
01:17 15.5 °F /  -9.2 °C 11.3 °F /  -11.5 °C 1027.3 in /  34784.4 hPa NNE 1.6 mph /  2.6 km/h 3.2 mph /  5.1 km/h 76 % 0.0 in /  0 mm
01:22 15.4 °F /  -9.2 °C 11.2 °F /  -11.6 °C 1027.3 in /  34784.4 hPa Calm   4.8 mph /  7.7 km/h 76 % 0.0 in /  0 mm
01:27 15.5 °F /  -9.2 °C 11.3 °F /  -11.5 °C 1027.3 in /  34784.4 hPa Calm   8.0 mph /  12.9 km/h 76 % 0.0 in /  0 mm
01:32 15.4 °F /  -9.2 °C 11.4 °F /  -11.4 °C 1027.3 in /  34784.4 hPa NNW 1.6 mph /  2.6 km/h 8.0 mph /  12.9 km/h 77 % 0.0 in /  0 mm
01:37 15.6 °F /  -9.1 °C 11.6 °F /  -11.3 °C 1027.3 in /  34784.4 hPa Calm   8.0 mph /  12.9 km/h 77 % 0.0 in /  0 mm
01:42 15.6 °F /  -9.1 °C 11.6 °F /  -11.3 °C 1027.3 in /  34784.4 hPa Calm   8.0 mph /  12.9 km/h 77 % 0.0 in /  0 mm
01:47 15.6 °F /  -9.1 °C 11.6 °F /  -11.3 °C 1027.3 in /  34784.4 hPa NNE 1.6 mph /  2.6 km/h 9.7 mph /  15.6 km/h 77 % 0.0 in /  0 mm
01:52 15.6 °F /  -9.1 °C 11.6 °F /  -11.3 °C 1027.0 in /  34774.2 hPa NNW 3.2 mph /  5.1 km/h 9.7 mph /  15.6 km/h 77 % 0.0 in /  0 mm
01:57 15.6 °F /  -9.1 °C 11.6 °F /  -11.3 °C 1027.0 in /  34774.2 hPa North 4.8 mph /  7.7 km/h 9.7 mph /  15.6 km/h 77 % 0.0 in /  0 mm
02:02 15.6 °F /  -9.1 °C 11.6 °F /  -11.3 °C 1027.0 in /  34774.2 hPa North 1.6 mph /  2.6 km/h 9.7 mph /  15.6 km/h 77 % 0.0 in /  0 mm
02:07 15.6 °F /  -9.1 °C 11.6 °F /  -11.3 °C 1027.0 in /  34774.2 hPa NNE 3.2 mph /  5.1 km/h 11.3 mph /  18.2 km/h 77 % 0.0 in /  0 mm
02:12 15.6 °F /  -9.1 °C 11.6 °F /  -11.3 °C 1027.0 in /  34774.2 hPa NNW 3.2 mph /  5.1 km/h 14.5 mph /  23.3 km/h 77 % 0.0 in /  0 mm
02:17 15.6 °F /  -9.1 °C 11.8 °F /  -11.2 °C 1027.0 in /  34774.2 hPa NNW 3.2 mph /  5.1 km/h 14.5 mph /  23.3 km/h 78 % 0.0 in /  0 mm
02:22 15.6 °F /  -9.1 °C 11.6 °F /  -11.3 °C 1027.0 in /  34774.2 hPa Calm   14.5 mph /  23.3 km/h 77 % 0.0 in /  0 mm
02:27 15.5 °F /  -9.2 °C 11.7 °F /  -11.3 °C 1027.0 in /  34774.2 hPa North 1.6 mph /  2.6 km/h 12.9 mph /  20.8 km/h 78 % 0.0 in /  0 mm
02:32 15.4 °F /  -9.2 °C 11.6 °F /  -11.3 °C 1027.0 in /  34774.2 hPa North 3.2 mph /  5.1 km/h 12.9 mph /  20.8 km/h 78 % 0.0 in /  0 mm
02:37 15.4 °F /  -9.2 °C 11.6 °F /  -11.3 °C 1027.0 in /  34774.2 hPa NE 3.2 mph /  5.1 km/h 12.9 mph /  20.8 km/h 78 % 0.0 in /  0 mm
02:42 15.4 °F /  -9.2 °C 11.6 °F /  -11.3 °C 1027.0 in /  34774.2 hPa ENE 4.8 mph /  7.7 km/h 12.9 mph /  20.8 km/h 78 % 0.0 in /  0 mm
02:47 15.3 °F /  -9.3 °C 11.7 °F /  -11.3 °C 1027.0 in /  34774.2 hPa NE 3.2 mph /  5.1 km/h 12.9 mph /  20.8 km/h 79 % 0.0 in /  0 mm
02:52 15.3 °F /  -9.3 °C 11.7 °F /  -11.3 °C 1027.0 in /  34774.2 hPa NE 1.6 mph /  2.6 km/h 9.7 mph /  15.6 km/h 79 % 0.0 in /  0 mm
02:57 15.2 °F /  -9.3 °C 11.6 °F /  -11.3 °C 1027.0 in /  34774.2 hPa Calm   9.7 mph /  15.6 km/h 79 % 0.0 in /  0 mm
03:02 15.1 °F /  -9.4 °C 11.5 °F /  -11.4 °C 1027.0 in /  34774.2 hPa NE 4.8 mph /  7.7 km/h 8.0 mph /  12.9 km/h 79 % 0.0 in /  0 mm
03:07 15.1 °F /  -9.4 °C 11.7 °F /  -11.3 °C 1027.0 in /  34774.2 hPa NE 6.4 mph /  10.3 km/h 8.0 mph /  12.9 km/h 80 % 0.0 in /  0 mm
03:12 15.0 °F /  -9.4 °C 11.6 °F /  -11.3 °C 1027.0 in /  34774.2 hPa NNE 1.6 mph /  2.6 km/h 9.7 mph /  15.6 km/h 80 % 0.0 in /  0 mm
03:17 14.9 °F /  -9.5 °C 11.5 °F /  -11.4 °C 1027.0 in /  34774.2 hPa NE 1.6 mph /  2.6 km/h 9.7 mph /  15.6 km/h 80 % 0.0 in /  0 mm
03:22 14.9 °F /  -9.5 °C 11.5 °F /  -11.4 °C 1027.0 in /  34774.2 hPa NNE 3.2 mph /  5.1 km/h 9.7 mph /  15.6 km/h 80 % 0.0 in /  0 mm
03:27 14.8 °F /  -9.6 °C 11.6 °F /  -11.3 °C 1027.0 in /  34774.2 hPa North 8.0 mph /  12.9 km/h 9.7 mph /  15.6 km/h 81 % 0.0 in /  0 mm
03:32 14.7 °F /  -9.6 °C 11.5 °F /  -11.4 °C 1027.0 in /  34774.2 hPa North 1.6 mph /  2.6 km/h 9.7 mph /  15.6 km/h 81 % 0.0 in /  0 mm
03:37 14.6 °F /  -9.7 °C 11.4 °F /  -11.4 °C 1027.0 in /  34774.2 hPa North 1.6 mph /  2.6 km/h 9.7 mph /  15.6 km/h 81 % 0.0 in /  0 mm
03:42 14.4 °F /  -9.8 °C 11.4 °F /  -11.4 °C 1027.3 in /  34784.4 hPa NNE 4.8 mph /  7.7 km/h 9.7 mph /  15.6 km/h 82 % 0.0 in /  0 mm
03:47 14.3 °F /  -9.8 °C 11.3 °F /  -11.5 °C 1027.0 in /  34774.2 hPa North 3.2 mph /  5.1 km/h 8.0 mph /  12.9 km/h 82 % 0.0 in /  0 mm
03:52 14.1 °F /  -9.9 °C 11.3 °F /  -11.5 °C 1027.3 in /  34784.4 hPa North 3.2 mph /  5.1 km/h 8.0 mph /  12.9 km/h 83 % 0.0 in /  0 mm
03:57 14.1 °F /  -9.9 °C 11.3 °F /  -11.5 °C 1027.3 in /  34784.4 hPa North 1.6 mph /  2.6 km/h 8.0 mph /  12.9 km/h 83 % 0.0 in /  0 mm
04:02 13.9 °F /  -10.1 °C 11.2 °F /  -11.6 °C 1027.0 in /  34774.2 hPa NW 1.6 mph /  2.6 km/h 9.7 mph /  15.6 km/h 84 % 0.0 in /  0 mm
04:07 14.0 °F /  -10 °C 11.2 °F /  -11.6 °C 1027.3 in /  34784.4 hPa NNE 6.4 mph /  10.3 km/h 9.7 mph /  15.6 km/h 83 % 0.0 in /  0 mm
04:12 13.9 °F /  -10.1 °C 11.1 °F /  -11.6 °C 1027.3 in /  34784.4 hPa NE 1.6 mph /  2.6 km/h 9.7 mph /  15.6 km/h 83 % 0.0 in /  0 mm
04:17 13.7 °F /  -10.2 °C 11.0 °F /  -11.7 °C 1027.3 in /  34784.4 hPa NNE 3.2 mph /  5.1 km/h 6.4 mph /  10.3 km/h 84 % 0.0 in /  0 mm
04:22 13.6 °F /  -10.2 °C 10.9 °F /  -11.7 °C 1027.3 in /  34784.4 hPa NNE 3.2 mph /  5.1 km/h 6.4 mph /  10.3 km/h 84 % 0.0 in /  0 mm
04:27 13.6 °F /  -10.2 °C 11.1 °F /  -11.6 °C 1027.3 in /  34784.4 hPa NNE 4.8 mph /  7.7 km/h 6.4 mph /  10.3 km/h 85 % 0.0 in /  0 mm
04:32 13.7 °F /  -10.2 °C 11.0 °F /  -11.7 °C 1027.3 in /  34784.4 hPa NNW 6.4 mph /  10.3 km/h 11.3 mph /  18.2 km/h 84 % 0.0 in /  0 mm
04:37 13.7 °F /  -10.2 °C 11.0 °F /  -11.7 °C 1027.3 in /  34784.4 hPa North 4.8 mph /  7.7 km/h 11.3 mph /  18.2 km/h 84 % 0.0 in /  0 mm
04:42 13.7 °F /  -10.2 °C 11.0 °F /  -11.7 °C 1027.3 in /  34784.4 hPa NNE 1.6 mph /  2.6 km/h 11.3 mph /  18.2 km/h 84 % 0.0 in /  0 mm
04:47 13.6 °F /  -10.2 °C 10.8 °F /  -11.8 °C 1027.3 in /  34784.4 hPa NE 4.8 mph /  7.7 km/h 11.3 mph /  18.2 km/h 83 % 0.0 in /  0 mm
04:52 13.6 °F /  -10.2 °C 10.9 °F /  -11.7 °C 1027.3 in /  34784.4 hPa NNW 3.2 mph /  5.1 km/h 11.3 mph /  18.2 km/h 84 % 0.0 in /  0 mm
04:57 13.6 °F /  -10.2 °C 10.9 °F /  -11.7 °C 1027.3 in /  34784.4 hPa NW 1.6 mph /  2.6 km/h 9.7 mph /  15.6 km/h 84 % 0.0 in /  0 mm
05:02 13.5 °F /  -10.3 °C 10.8 °F /  -11.8 °C 1027.3 in /  34784.4 hPa NNW 3.2 mph /  5.1 km/h 9.7 mph /  15.6 km/h 84 % 0.0 in /  0 mm
05:12 13.4 °F /  -10.3 °C 10.8 °F /  -11.8 °C 1027.3 in /  34784.4 hPa NE 1.6 mph /  2.6 km/h 8.0 mph /  12.9 km/h 84 % 0.0 in /  0 mm
05:17 13.3 °F /  -10.4 °C 10.7 °F /  -11.8 °C 1027.3 in /  34784.4 hPa NNE 3.2 mph /  5.1 km/h 6.4 mph /  10.3 km/h 84 % 0.0 in /  0 mm
05:22 13.2 °F /  -10.4 °C 10.6 °F /  -11.9 °C 1027.7 in /  34797.9 hPa NE 1.6 mph /  2.6 km/h 6.4 mph /  10.3 km/h 84 % 0.0 in /  0 mm
05:27 13.1 °F /  -10.5 °C 10.6 °F /  -11.9 °C 1027.7 in /  34797.9 hPa NNW 1.6 mph /  2.6 km/h 6.4 mph /  10.3 km/h 85 % 0.0 in /  0 mm
05:32 13.1 °F /  -10.5 °C 10.5 °F /  -11.9 °C 1027.7 in /  34797.9 hPa NNE 1.6 mph /  2.6 km/h 6.4 mph /  10.3 km/h 84 % 0.0 in /  0 mm
05:42 12.8 °F /  -10.7 °C 10.3 °F /  -12.1 °C 1027.7 in /  34797.9 hPa NE 3.2 mph /  5.1 km/h 8.0 mph /  12.9 km/h 85 % 0.0 in /  0 mm
05:52 12.7 °F /  -10.7 °C 10.2 °F /  -12.1 °C 1027.7 in /  34797.9 hPa NNE 4.8 mph /  7.7 km/h 6.4 mph /  10.3 km/h 85 % 0.0 in /  0 mm
06:02 12.6 °F /  -10.8 °C 10.1 °F /  -12.2 °C 1027.7 in /  34797.9 hPa NNE 4.8 mph /  7.7 km/h 6.4 mph /  10.3 km/h 85 % 0.0 in /  0 mm
06:12 12.5 °F /  -10.8 °C 10.2 °F /  -12.1 °C 1027.7 in /  34797.9 hPa NNE 1.6 mph /  2.6 km/h 6.4 mph /  10.3 km/h 86 % 0.0 in /  0 mm
06:17 12.6 °F /  -10.8 °C 10.3 °F /  -12.1 °C 1028.0 in /  34808.1 hPa North 3.2 mph /  5.1 km/h 4.8 mph /  7.7 km/h 86 % 0.0 in /  0 mm
06:22 12.5 °F /  -10.8 °C 10.2 °F /  -12.1 °C 1027.7 in /  34797.9 hPa NNE 3.2 mph /  5.1 km/h 4.8 mph /  7.7 km/h 86 % 0.0 in /  0 mm
06:32 12.6 °F /  -10.8 °C 10.3 °F /  -12.1 °C 1027.7 in /  34797.9 hPa NE 1.6 mph /  2.6 km/h 4.8 mph /  7.7 km/h 86 % 0.0 in /  0 mm
06:42 13.1 °F /  -10.5 °C 10.6 °F /  -11.9 °C 1027.7 in /  34797.9 hPa NNE 4.8 mph /  7.7 km/h 4.8 mph /  7.7 km/h 85 % 0.0 in /  0 mm
06:47 13.3 °F /  -10.4 °C 10.7 °F /  -11.8 °C 1027.7 in /  34797.9 hPa NNW 4.8 mph /  7.7 km/h 6.4 mph /  10.3 km/h 84 % 0.0 in /  0 mm
06:57 13.6 °F /  -10.2 °C 10.8 °F /  -11.8 °C 1027.7 in /  34797.9 hPa NNE 3.2 mph /  5.1 km/h 9.7 mph /  15.6 km/h 83 % 0.0 in /  0 mm
07:02 13.8 °F /  -10.1 °C 11.0 °F /  -11.7 °C 1028.0 in /  34808.1 hPa NNE 1.6 mph /  2.6 km/h 9.7 mph /  15.6 km/h 83 % 0.0 in /  0 mm
07:12 14.2 °F /  -9.9 °C 11.2 °F /  -11.6 °C 1028.0 in /  34808.1 hPa NE 3.2 mph /  5.1 km/h 9.7 mph /  15.6 km/h 82 % 0.0 in /  0 mm
07:17 14.4 °F /  -9.8 °C 11.2 °F /  -11.6 °C 1028.0 in /  34808.1 hPa NE 3.2 mph /  5.1 km/h 8.0 mph /  12.9 km/h 81 % 0.0 in /  0 mm
07:22 14.6 °F /  -9.7 °C 11.4 °F /  -11.4 °C 1028.0 in /  34808.1 hPa NNE 1.6 mph /  2.6 km/h 8.0 mph /  12.9 km/h 81 % 0.0 in /  0 mm
07:42 15.4 °F /  -9.2 °C 11.6 °F /  -11.3 °C 1028.0 in /  34808.1 hPa NNE 3.2 mph /  5.1 km/h 8.0 mph /  12.9 km/h 78 % 0.0 in /  0 mm
07:52 15.6 °F /  -9.1 °C 11.6 °F /  -11.3 °C 1028.0 in /  34808.1 hPa NE 4.8 mph /  7.7 km/h 9.7 mph /  15.6 km/h 77 % 0.0 in /  0 mm
07:57 15.8 °F /  -9 °C 11.6 °F /  -11.3 °C 1028.3 in /  34818.2 hPa NNE 9.7 mph /  15.6 km/h 9.7 mph /  15.6 km/h 76 % 0.0 in /  0 mm
08:02 15.9 °F /  -8.9 °C 11.7 °F /  -11.3 °C 1028.0 in /  34808.1 hPa NE 1.6 mph /  2.6 km/h 9.7 mph /  15.6 km/h 76 % 0.0 in /  0 mm
08:12 16.2 °F /  -8.8 °C 11.4 °F /  -11.4 °C 1028.3 in /  34818.2 hPa NE 6.4 mph /  10.3 km/h 9.7 mph /  15.6 km/h 73 % 0.0 in /  0 mm
08:17 16.5 °F /  -8.6 °C 11.8 °F /  -11.2 °C 1028.3 in /  34818.2 hPa NE 8.0 mph /  12.9 km/h 11.3 mph /  18.2 km/h 74 % 0.0 in /  0 mm
08:22 16.6 °F /  -8.6 °C 11.7 °F /  -11.3 °C 1028.3 in /  34818.2 hPa NE 3.2 mph /  5.1 km/h 11.3 mph /  18.2 km/h 73 % 0.0 in /  0 mm
08:32 16.6 °F /  -8.6 °C 11.5 °F /  -11.4 °C 1028.3 in /  34818.2 hPa NE 6.4 mph /  10.3 km/h 9.7 mph /  15.6 km/h 72 % 0.0 in /  0 mm
08:42 16.7 °F /  -8.5 °C 11.6 °F /  -11.3 °C 1028.3 in /  34818.2 hPa East 6.4 mph /  10.3 km/h 17.7 mph /  28.5 km/h 72 % 0.0 in /  0 mm
08:47 16.9 °F /  -8.4 °C 12.0 °F /  -11.1 °C 1028.3 in /  34818.2 hPa ENE 6.4 mph /  10.3 km/h 17.7 mph /  28.5 km/h 73 % 0.0 in /  0 mm
08:52 16.9 °F /  -8.4 °C 11.8 °F /  -11.2 °C 1028.3 in /  34818.2 hPa ENE 4.8 mph /  7.7 km/h 17.7 mph /  28.5 km/h 72 % 0.0 in /  0 mm
08:57 16.9 °F /  -8.4 °C 11.8 °F /  -11.2 °C 1028.3 in /  34818.2 hPa East 11.3 mph /  18.2 km/h 16.1 mph /  25.9 km/h 72 % 0.0 in /  0 mm
09:02 17.1 °F /  -8.3 °C 12.0 °F /  -11.1 °C 1028.3 in /  34818.2 hPa NNE 9.7 mph /  15.6 km/h 17.7 mph /  28.5 km/h 72 % 0.0 in /  0 mm
09:07 17.1 °F /  -8.3 °C 11.8 °F /  -11.2 °C 1028.3 in /  34818.2 hPa ENE 9.7 mph /  15.6 km/h 17.7 mph /  28.5 km/h 71 % 0.0 in /  0 mm
09:12 17.3 °F /  -8.2 °C 12.2 °F /  -11 °C 1028.3 in /  34818.2 hPa NE 8.0 mph /  12.9 km/h 17.7 mph /  28.5 km/h 72 % 0.0 in /  0 mm
09:17 17.4 °F /  -8.1 °C 11.9 °F /  -11.2 °C 1028.3 in /  34818.2 hPa East 6.4 mph /  10.3 km/h 17.7 mph /  28.5 km/h 70 % 0.0 in /  0 mm
09:22 17.6 °F /  -8 °C 12.1 °F /  -11.1 °C 1028.3 in /  34818.2 hPa East 8.0 mph /  12.9 km/h 17.7 mph /  28.5 km/h 70 % 0.0 in /  0 mm
09:32 18.0 °F /  -7.8 °C 11.6 °F /  -11.3 °C 1028.3 in /  34818.2 hPa ENE 14.5 mph /  23.3 km/h 16.1 mph /  25.9 km/h 66 % 0.0 in /  0 mm
09:42 18.3 °F /  -7.6 °C 11.6 °F /  -11.3 °C 1028.7 in /  34831.8 hPa ENE 4.8 mph /  7.7 km/h 19.3 mph /  31.1 km/h 65 % 0.0 in /  0 mm
09:52 18.4 °F /  -7.6 °C 11.5 °F /  -11.4 °C 1028.3 in /  34818.2 hPa ENE 4.8 mph /  7.7 km/h 20.9 mph /  33.6 km/h 64 % 0.0 in /  0 mm
09:57 18.6 °F /  -7.4 °C 11.2 °F /  -11.6 °C 1028.3 in /  34818.2 hPa NE 8.0 mph /  12.9 km/h 20.9 mph /  33.6 km/h 62 % 0.0 in /  0 mm
10:02 18.7 °F /  -7.4 °C 11.5 °F /  -11.4 °C 1028.3 in /  34818.2 hPa NE 9.7 mph /  15.6 km/h 20.9 mph /  33.6 km/h 63 % 0.0 in /  0 mm
10:12 18.9 °F /  -7.3 °C 11.0 °F /  -11.7 °C 1028.3 in /  34818.2 hPa ENE 12.9 mph /  20.8 km/h 19.3 mph /  31.1 km/h 60 % 0.0 in /  0 mm
10:17 19.1 °F /  -7.2 °C 11.4 °F /  -11.4 °C 1028.3 in /  34818.2 hPa NE 9.7 mph /  15.6 km/h 20.9 mph /  33.6 km/h 61 % 0.0 in /  0 mm
10:22 19.2 °F /  -7.1 °C 11.2 °F /  -11.6 °C 1028.3 in /  34818.2 hPa ENE 8.0 mph /  12.9 km/h 24.1 mph /  38.8 km/h 60 % 0.0 in /  0 mm
10:32 19.7 °F /  -6.8 °C 11.5 °F /  -11.4 °C 1028.3 in /  34818.2 hPa NE 14.5 mph /  23.3 km/h 24.1 mph /  38.8 km/h 59 % 0.0 in /  0 mm
10:42 19.7 °F /  -6.8 °C 11.5 °F /  -11.4 °C 1028.3 in /  34818.2 hPa ENE 14.5 mph /  23.3 km/h 22.5 mph /  36.2 km/h 59 % 0.0 in /  0 mm
10:47 19.8 °F /  -6.8 °C 11.3 °F /  -11.5 °C 1028.3 in /  34818.2 hPa East 6.4 mph /  10.3 km/h 24.1 mph /  38.8 km/h 58 % 0.0 in /  0 mm
10:52 20.1 °F /  -6.6 °C 11.6 °F /  -11.3 °C 1028.3 in /  34818.2 hPa NNE 19.3 mph /  31.1 km/h 24.1 mph /  38.8 km/h 58 % 0.0 in /  0 mm
11:02 20.1 °F /  -6.6 °C 11.6 °F /  -11.3 °C 1028.0 in /  34808.1 hPa NE 12.9 mph /  20.8 km/h 19.3 mph /  31.1 km/h 58 % 0.0 in /  0 mm
11:12 20.4 °F /  -6.4 °C 11.6 °F /  -11.3 °C 1028.0 in /  34808.1 hPa NE 16.1 mph /  25.9 km/h 20.9 mph /  33.6 km/h 57 % 0.0 in /  0 mm
11:17 20.4 °F /  -6.4 °C 11.3 °F /  -11.5 °C 1028.0 in /  34808.1 hPa NE 6.4 mph /  10.3 km/h 22.5 mph /  36.2 km/h 56 % 0.0 in /  0 mm
11:22 20.5 °F /  -6.4 °C 11.4 °F /  -11.4 °C 1028.0 in /  34808.1 hPa ENE 11.3 mph /  18.2 km/h 27.4 mph /  44.1 km/h 56 % 0.0 in /  0 mm
11:32 21.0 °F /  -6.1 °C 11.9 °F /  -11.2 °C 1028.0 in /  34808.1 hPa NNE 14.5 mph /  23.3 km/h 27.4 mph /  44.1 km/h 56 % 0.0 in /  0 mm
11:42 21.0 °F /  -6.1 °C 11.6 °F /  -11.3 °C 1028.0 in /  34808.1 hPa NNE 17.7 mph /  28.5 km/h 25.7 mph /  41.4 km/h 55 % 0.0 in /  0 mm
11:47 20.8 °F /  -6.2 °C 11.2 °F /  -11.6 °C 1027.7 in /  34797.9 hPa ENE 19.3 mph /  31.1 km/h 27.4 mph /  44.1 km/h 54 % 0.0 in /  0 mm
11:52 21.1 °F /  -6.1 °C 11.7 °F /  -11.3 °C 1027.7 in /  34797.9 hPa NNW 6.4 mph /  10.3 km/h 27.4 mph /  44.1 km/h 55 % 0.0 in /  0 mm
12:02 21.5 °F /  -5.8 °C 11.5 °F /  -11.4 °C 1027.7 in /  34797.9 hPa ENE 12.9 mph /  20.8 km/h 27.4 mph /  44.1 km/h 53 % 0.0 in /  0 mm
12:12 21.8 °F /  -5.7 °C 11.8 °F /  -11.2 °C 1027.7 in /  34797.9 hPa NNE 9.7 mph /  15.6 km/h 27.4 mph /  44.1 km/h 53 % 0.0 in /  0 mm
12:17 21.9 °F /  -5.6 °C 11.6 °F /  -11.3 °C 1027.7 in /  34797.9 hPa NE 14.5 mph /  23.3 km/h 24.1 mph /  38.8 km/h 52 % 0.0 in /  0 mm
12:22 22.1 °F /  -5.5 °C 11.8 °F /  -11.2 °C 1027.7 in /  34797.9 hPa ENE 12.9 mph /  20.8 km/h 24.1 mph /  38.8 km/h 52 % 0.0 in /  0 mm
12:32 22.2 °F /  -5.4 °C 11.9 °F /  -11.2 °C 1027.7 in /  34797.9 hPa North 16.1 mph /  25.9 km/h 24.1 mph /  38.8 km/h 52 % 0.0 in /  0 mm
12:42 22.4 °F /  -5.3 °C 12.3 °F /  -10.9 °C 1027.7 in /  34797.9 hPa North 8.0 mph /  12.9 km/h 22.5 mph /  36.2 km/h 53 % 0.0 in /  0 mm
12:52 22.4 °F /  -5.3 °C 11.8 °F /  -11.2 °C 1027.3 in /  34784.4 hPa NE 6.4 mph /  10.3 km/h 25.7 mph /  41.4 km/h 51 % 0.0 in /  0 mm
12:57 22.6 °F /  -5.2 °C 11.9 °F /  -11.2 °C 1027.7 in /  34797.9 hPa East 12.9 mph /  20.8 km/h 25.7 mph /  41.4 km/h 51 % 0.0 in /  0 mm
13:02 22.9 °F /  -5.1 °C 12.2 °F /  -11 °C 1027.7 in /  34797.9 hPa North 12.9 mph /  20.8 km/h 22.5 mph /  36.2 km/h 51 % 0.0 in /  0 mm
13:07 22.9 °F /  -5.1 °C 11.9 °F /  -11.2 °C 1027.3 in /  34784.4 hPa NNW 12.9 mph /  20.8 km/h 22.5 mph /  36.2 km/h 50 % 0.0 in /  0 mm
13:12 22.6 °F /  -5.2 °C 11.6 °F /  -11.3 °C 1027.3 in /  34784.4 hPa ENE 16.1 mph /  25.9 km/h 30.6 mph /  49.2 km/h 50 % 0.0 in /  0 mm
13:17 22.6 °F /  -5.2 °C 11.6 °F /  -11.3 °C 1027.3 in /  34784.4 hPa NE 3.2 mph /  5.1 km/h 30.6 mph /  49.2 km/h 50 % 0.0 in /  0 mm
13:22 22.7 °F /  -5.2 °C 11.7 °F /  -11.3 °C 1027.3 in /  34784.4 hPa NE 8.0 mph /  12.9 km/h 30.6 mph /  49.2 km/h 50 % 0.0 in /  0 mm
13:32 23.2 °F /  -4.9 °C 11.9 °F /  -11.2 °C 1027.0 in /  34774.2 hPa NNW 4.8 mph /  7.7 km/h 30.6 mph /  49.2 km/h 49 % 0.0 in /  0 mm
13:37 23.4 °F /  -4.8 °C 11.4 °F /  -11.4 °C 1027.0 in /  34774.2 hPa NE 14.5 mph /  23.3 km/h 30.6 mph /  49.2 km/h 47 % 0.0 in /  0 mm
13:42 23.3 °F /  -4.8 °C 11.7 °F /  -11.3 °C 1027.0 in /  34774.2 hPa NNE 20.9 mph /  33.6 km/h 24.1 mph /  38.8 km/h 48 % 0.0 in /  0 mm
13:47 23.4 °F /  -4.8 °C 11.8 °F /  -11.2 °C 1027.0 in /  34774.2 hPa NNE 11.3 mph /  18.2 km/h 25.7 mph /  41.4 km/h 48 % 0.0 in /  0 mm
13:52 23.4 °F /  -4.8 °C 12.1 °F /  -11.1 °C 1027.0 in /  34774.2 hPa NE 16.1 mph /  25.9 km/h 25.7 mph /  41.4 km/h 49 % 0.0 in /  0 mm
13:57 23.7 °F /  -4.6 °C 12.0 °F /  -11.1 °C 1027.0 in /  34774.2 hPa ENE 6.4 mph /  10.3 km/h 25.7 mph /  41.4 km/h 48 % 0.0 in /  0 mm
14:02 23.9 °F /  -4.5 °C 11.9 °F /  -11.2 °C 1027.0 in /  34774.2 hPa NE 19.3 mph /  31.1 km/h 25.7 mph /  41.4 km/h 47 % 0.0 in /  0 mm
14:07 23.9 °F /  -4.5 °C 12.2 °F /  -11 °C 1026.6 in /  34760.7 hPa NNE 9.7 mph /  15.6 km/h 25.7 mph /  41.4 km/h 48 % 0.0 in /  0 mm
14:12 24.2 °F /  -4.3 °C 12.8 °F /  -10.7 °C 1026.6 in /  34760.7 hPa NE 9.7 mph /  15.6 km/h 27.4 mph /  44.1 km/h 49 % 0.0 in /  0 mm
14:17 24.4 °F /  -4.2 °C 12.4 °F /  -10.9 °C 1026.6 in /  34760.7 hPa NE 24.1 mph /  38.8 km/h 27.4 mph /  44.1 km/h 47 % 0.0 in /  0 mm
14:22 24.2 °F /  -4.3 °C 12.8 °F /  -10.7 °C 1026.6 in /  34760.7 hPa NE 16.1 mph /  25.9 km/h 35.4 mph /  57 km/h 49 % 0.0 in /  0 mm
14:27 24.1 °F /  -4.4 °C 12.7 °F /  -10.7 °C 1026.3 in /  34750.5 hPa ENE 20.9 mph /  33.6 km/h 35.4 mph /  57 km/h 49 % 0.0 in /  0 mm
14:32 24.3 °F /  -4.3 °C 13.2 °F /  -10.4 °C 1026.3 in /  34750.5 hPa North 22.5 mph /  36.2 km/h 27.4 mph /  44.1 km/h 50 % 0.0 in /  0 mm
14:37 24.4 °F /  -4.2 °C 13.3 °F /  -10.4 °C 1026.3 in /  34750.5 hPa NNW 12.9 mph /  20.8 km/h 27.4 mph /  44.1 km/h 50 % 0.0 in /  0 mm
14:42 24.5 °F /  -4.2 °C 13.1 °F /  -10.5 °C 1026.3 in /  34750.5 hPa NE 16.1 mph /  25.9 km/h 27.4 mph /  44.1 km/h 49 % 0.0 in /  0 mm
14:47 24.4 °F /  -4.2 °C 13.6 °F /  -10.2 °C 1026.3 in /  34750.5 hPa NE 14.5 mph /  23.3 km/h 27.4 mph /  44.1 km/h 51 % 0.0 in /  0 mm
14:52 24.6 °F /  -4.1 °C 13.8 °F /  -10.1 °C 1026.3 in /  34750.5 hPa ENE 14.5 mph /  23.3 km/h 25.7 mph /  41.4 km/h 51 % 0.0 in /  0 mm
14:57 24.9 °F /  -3.9 °C 14.1 °F /  -9.9 °C 1026.3 in /  34750.5 hPa East 11.3 mph /  18.2 km/h 27.4 mph /  44.1 km/h 51 % 0.0 in /  0 mm
15:02 24.8 °F /  -4 °C 14.0 °F /  -10 °C 1026.0 in /  34740.4 hPa NE 14.5 mph /  23.3 km/h 27.4 mph /  44.1 km/h 51 % 0.0 in /  0 mm
15:07 24.9 °F /  -3.9 °C 13.8 °F /  -10.1 °C 1026.0 in /  34740.4 hPa ENE 11.3 mph /  18.2 km/h 27.4 mph /  44.1 km/h 50 % 0.0 in /  0 mm
15:12 25.1 °F /  -3.8 °C 14.3 °F /  -9.8 °C 1026.0 in /  34740.4 hPa NNE 14.5 mph /  23.3 km/h 27.4 mph /  44.1 km/h 51 % 0.0 in /  0 mm
15:22 24.9 °F /  -3.9 °C 13.8 °F /  -10.1 °C 1026.0 in /  34740.4 hPa ENE 14.5 mph /  23.3 km/h 29.0 mph /  46.7 km/h 50 % 0.0 in /  0 mm
15:27 24.9 °F /  -3.9 °C 14.4 °F /  -9.8 °C 1026.0 in /  34740.4 hPa East 9.7 mph /  15.6 km/h 29.0 mph /  46.7 km/h 52 % 0.0 in /  0 mm
15:32 25.1 °F /  -3.8 °C 14.3 °F /  -9.8 °C 1026.0 in /  34740.4 hPa ENE 20.9 mph /  33.6 km/h 27.4 mph /  44.1 km/h 51 % 0.0 in /  0 mm
15:37 25.1 °F /  -3.8 °C 14.3 °F /  -9.8 °C 1026.0 in /  34740.4 hPa NNW 14.5 mph /  23.3 km/h 27.4 mph /  44.1 km/h 51 % 0.0 in /  0 mm
15:42 24.9 °F /  -3.9 °C 14.1 °F /  -9.9 °C 1025.6 in /  34726.8 hPa NE 11.3 mph /  18.2 km/h 35.4 mph /  57 km/h 51 % 0.0 in /  0 mm
15:47 25.0 °F /  -3.9 °C 14.2 °F /  -9.9 °C 1025.6 in /  34726.8 hPa NE 11.3 mph /  18.2 km/h 35.4 mph /  57 km/h 51 % 0.0 in /  0 mm
15:52 25.2 °F /  -3.8 °C 14.0 °F /  -10 °C 1025.6 in /  34726.8 hPa ENE 25.7 mph /  41.4 km/h 35.4 mph /  57 km/h 50 % 0.0 in /  0 mm
15:57 25.1 °F /  -3.8 °C 14.3 °F /  -9.8 °C 1026.0 in /  34740.4 hPa NE 17.7 mph /  28.5 km/h 32.2 mph /  51.8 km/h 51 % 0.0 in /  0 mm
16:02 25.3 °F /  -3.7 °C 14.4 °F /  -9.8 °C 1026.0 in /  34740.4 hPa ENE 22.5 mph /  36.2 km/h 33.8 mph /  54.4 km/h 51 % 0.0 in /  0 mm
16:07 25.2 °F /  -3.8 °C 14.3 °F /  -9.8 °C 1026.0 in /  34740.4 hPa ENE 17.7 mph /  28.5 km/h 33.8 mph /  54.4 km/h 51 % 0.0 in /  0 mm
16:12 25.2 °F /  -3.8 °C 14.3 °F /  -9.8 °C 1026.0 in /  34740.4 hPa NE 16.1 mph /  25.9 km/h 33.8 mph /  54.4 km/h 51 % 0.0 in /  0 mm
16:17 25.1 °F /  -3.8 °C 14.3 °F /  -9.8 °C 1026.0 in /  34740.4 hPa NE 11.3 mph /  18.2 km/h 32.2 mph /  51.8 km/h 51 % 0.0 in /  0 mm
16:22 25.3 °F /  -3.7 °C 14.7 °F /  -9.6 °C 1025.6 in /  34726.8 hPa ENE 16.1 mph /  25.9 km/h 32.2 mph /  51.8 km/h 52 % 0.0 in /  0 mm
16:27 25.8 °F /  -3.4 °C 14.9 °F /  -9.5 °C 1025.6 in /  34726.8 hPa ENE 17.7 mph /  28.5 km/h 32.2 mph /  51.8 km/h 51 % 0.0 in /  0 mm
16:32 25.8 °F /  -3.4 °C 14.3 °F /  -9.8 °C 1025.6 in /  34726.8 hPa ENE 22.5 mph /  36.2 km/h 25.7 mph /  41.4 km/h 49 % 0.0 in /  0 mm
16:37 25.4 °F /  -3.7 °C 14.2 °F /  -9.9 °C 1025.6 in /  34726.8 hPa East 16.1 mph /  25.9 km/h 30.6 mph /  49.2 km/h 50 % 0.0 in /  0 mm
16:42 25.4 °F /  -3.7 °C 14.2 °F /  -9.9 °C 1025.3 in /  34716.7 hPa ENE 17.7 mph /  28.5 km/h 30.6 mph /  49.2 km/h 50 % 0.0 in /  0 mm
16:47 25.5 °F /  -3.6 °C 14.3 °F /  -9.8 °C 1025.6 in /  34726.8 hPa ENE 25.7 mph /  41.4 km/h 33.8 mph /  54.4 km/h 50 % 0.0 in /  0 mm
16:52 25.7 °F /  -3.5 °C 14.8 °F /  -9.6 °C 1025.6 in /  34726.8 hPa NNE 16.1 mph /  25.9 km/h 33.8 mph /  54.4 km/h 51 % 0.0 in /  0 mm
16:57 25.5 °F /  -3.6 °C 14.6 °F /  -9.7 °C 1025.3 in /  34716.7 hPa North 14.5 mph /  23.3 km/h 35.4 mph /  57 km/h 51 % 0.0 in /  0 mm
17:02 25.4 °F /  -3.7 °C 14.5 °F /  -9.7 °C 1025.3 in /  34716.7 hPa North 11.3 mph /  18.2 km/h 35.4 mph /  57 km/h 51 % 0.0 in /  0 mm
17:07 25.4 °F /  -3.7 °C 14.2 °F /  -9.9 °C 1025.3 in /  34716.7 hPa NNW 9.7 mph /  15.6 km/h 35.4 mph /  57 km/h 50 % 0.0 in /  0 mm
17:12 25.3 °F /  -3.7 °C 14.4 °F /  -9.8 °C 1025.3 in /  34716.7 hPa NE 14.5 mph /  23.3 km/h 32.2 mph /  51.8 km/h 51 % 0.0 in /  0 mm
17:17 25.4 °F /  -3.7 °C 14.5 °F /  -9.7 °C 1024.9 in /  34703.1 hPa NE 9.7 mph /  15.6 km/h 30.6 mph /  49.2 km/h 51 % 0.0 in /  0 mm
17:22 25.4 °F /  -3.7 °C 14.5 °F /  -9.7 °C 1024.9 in /  34703.1 hPa NE 14.5 mph /  23.3 km/h 30.6 mph /  49.2 km/h 51 % 0.0 in /  0 mm
17:27 25.4 °F /  -3.7 °C 14.2 °F /  -9.9 °C 1024.9 in /  34703.1 hPa NE 9.7 mph /  15.6 km/h 32.2 mph /  51.8 km/h 50 % 0.0 in /  0 mm
17:32 25.3 °F /  -3.7 °C 14.7 °F /  -9.6 °C 1024.9 in /  34703.1 hPa NE 20.9 mph /  33.6 km/h 32.2 mph /  51.8 km/h 52 % 0.0 in /  0 mm
17:37 25.3 °F /  -3.7 °C 14.4 °F /  -9.8 °C 1024.9 in /  34703.1 hPa NNE 14.5 mph /  23.3 km/h 30.6 mph /  49.2 km/h 51 % 0.0 in /  0 mm
17:42 25.3 °F /  -3.7 °C 14.7 °F /  -9.6 °C 1024.9 in /  34703.1 hPa NE 19.3 mph /  31.1 km/h 29.0 mph /  46.7 km/h 52 % 0.0 in /  0 mm
17:47 25.2 °F /  -3.8 °C 14.6 °F /  -9.7 °C 1024.9 in /  34703.1 hPa NE 14.5 mph /  23.3 km/h 33.8 mph /  54.4 km/h 52 % 0.0 in /  0 mm
17:52 25.2 °F /  -3.8 °C 14.9 °F /  -9.5 °C 1024.9 in /  34703.1 hPa NNW 12.9 mph /  20.8 km/h 33.8 mph /  54.4 km/h 53 % 0.0 in /  0 mm
17:57 25.4 °F /  -3.7 °C 14.5 °F /  -9.7 °C 1024.9 in /  34703.1 hPa NE 32.2 mph /  51.8 km/h 33.8 mph /  54.4 km/h 51 % 0.0 in /  0 mm
18:02 25.4 °F /  -3.7 °C 14.5 °F /  -9.7 °C 1024.9 in /  34703.1 hPa NNE 22.5 mph /  36.2 km/h 32.2 mph /  51.8 km/h 51 % 0.0 in /  0 mm
18:07 25.4 °F /  -3.7 °C 14.8 °F /  -9.6 °C 1024.6 in /  34693 hPa NNE 9.7 mph /  15.6 km/h 32.2 mph /  51.8 km/h 52 % 0.0 in /  0 mm
18:12 25.4 °F /  -3.7 °C 14.5 °F /  -9.7 °C 1024.9 in /  34703.1 hPa NNE 16.1 mph /  25.9 km/h 32.2 mph /  51.8 km/h 51 % 0.0 in /  0 mm
18:17 25.5 °F /  -3.6 °C 14.9 °F /  -9.5 °C 1024.6 in /  34693 hPa NE 20.9 mph /  33.6 km/h 32.2 mph /  51.8 km/h 52 % 0.0 in /  0 mm
18:22 25.3 °F /  -3.7 °C 14.4 °F /  -9.8 °C 1024.9 in /  34703.1 hPa NE 20.9 mph /  33.6 km/h 29.0 mph /  46.7 km/h 51 % 0.0 in /  0 mm
18:32 25.2 °F /  -3.8 °C 14.9 °F /  -9.5 °C 1024.6 in /  34693 hPa NNE 14.5 mph /  23.3 km/h 29.0 mph /  46.7 km/h 53 % 0.0 in /  0 mm
18:42 25.4 °F /  -3.7 °C 15.1 °F /  -9.4 °C 1024.6 in /  34693 hPa NNE 17.7 mph /  28.5 km/h 29.0 mph /  46.7 km/h 53 % 0.0 in /  0 mm
18:52 25.1 °F /  -3.8 °C 14.6 °F /  -9.7 °C 1024.6 in /  34693 hPa ENE 11.3 mph /  18.2 km/h 29.0 mph /  46.7 km/h 52 % 0.0 in /  0 mm
18:57 24.9 °F /  -3.9 °C 14.4 °F /  -9.8 °C 1024.6 in /  34693 hPa NE 12.9 mph /  20.8 km/h 33.8 mph /  54.4 km/h 52 % 0.0 in /  0 mm
19:02 24.9 °F /  -3.9 °C 14.7 °F /  -9.6 °C 1024.6 in /  34693 hPa North 14.5 mph /  23.3 km/h 33.8 mph /  54.4 km/h 53 % 0.0 in /  0 mm
19:07 24.9 °F /  -3.9 °C 14.7 °F /  -9.6 °C 1024.6 in /  34693 hPa ENE 14.5 mph /  23.3 km/h 30.6 mph /  49.2 km/h 53 % 0.0 in /  0 mm
19:12 24.9 °F /  -3.9 °C 14.4 °F /  -9.8 °C 1024.6 in /  34693 hPa ENE 16.1 mph /  25.9 km/h 29.0 mph /  46.7 km/h 52 % 0.0 in /  0 mm
19:17 24.7 °F /  -4.1 °C 14.5 °F /  -9.7 °C 1024.6 in /  34693 hPa NE 14.5 mph /  23.3 km/h 29.0 mph /  46.7 km/h 53 % 0.0 in /  0 mm
19:22 24.7 °F /  -4.1 °C 14.5 °F /  -9.7 °C 1024.6 in /  34693 hPa NNE 11.3 mph /  18.2 km/h 27.4 mph /  44.1 km/h 53 % 0.0 in /  0 mm
19:32 24.6 °F /  -4.1 °C 14.7 °F /  -9.6 °C 1024.6 in /  34693 hPa NE 12.9 mph /  20.8 km/h 32.2 mph /  51.8 km/h 54 % 0.0 in /  0 mm
19:42 24.3 °F /  -4.3 °C 14.1 °F /  -9.9 °C 1024.6 in /  34693 hPa ENE 11.3 mph /  18.2 km/h 32.2 mph /  51.8 km/h 53 % 0.0 in /  0 mm
19:47 24.3 °F /  -4.3 °C 14.4 °F /  -9.8 °C 1024.6 in /  34693 hPa NE 17.7 mph /  28.5 km/h 32.2 mph /  51.8 km/h 54 % 0.0 in /  0 mm
19:52 24.2 °F /  -4.3 °C 14.3 °F /  -9.8 °C 1024.3 in /  34682.8 hPa NE 14.5 mph /  23.3 km/h 32.2 mph /  51.8 km/h 54 % 0.0 in /  0 mm
19:57 24.1 °F /  -4.4 °C 14.5 °F /  -9.7 °C 1024.3 in /  34682.8 hPa West 9.7 mph /  15.6 km/h 33.8 mph /  54.4 km/h 55 % 0.0 in /  0 mm
20:02 24.0 °F /  -4.4 °C 14.4 °F /  -9.8 °C 1024.6 in /  34693 hPa NE 22.5 mph /  36.2 km/h 33.8 mph /  54.4 km/h 55 % 0.0 in /  0 mm
20:12 24.0 °F /  -4.4 °C 14.7 °F /  -9.6 °C 1024.6 in /  34693 hPa NNE 12.9 mph /  20.8 km/h 24.1 mph /  38.8 km/h 56 % 0.0 in /  0 mm
20:17 23.8 °F /  -4.6 °C 14.5 °F /  -9.7 °C 1024.6 in /  34693 hPa NE 24.1 mph /  38.8 km/h 24.1 mph /  38.8 km/h 56 % 0.0 in /  0 mm
20:22 23.8 °F /  -4.6 °C 14.5 °F /  -9.7 °C 1024.6 in /  34693 hPa NE 11.3 mph /  18.2 km/h 27.4 mph /  44.1 km/h 56 % 0.0 in /  0 mm
20:27 23.7 °F /  -4.6 °C 14.4 °F /  -9.8 °C 1024.3 in /  34682.8 hPa NNE 12.9 mph /  20.8 km/h 27.4 mph /  44.1 km/h 56 % 0.0 in /  0 mm
20:32 23.6 °F /  -4.7 °C 14.3 °F /  -9.8 °C 1024.6 in /  34693 hPa NE 11.3 mph /  18.2 km/h 25.7 mph /  41.4 km/h 56 % 0.0 in /  0 mm
20:37 23.5 °F /  -4.7 °C 14.2 °F /  -9.9 °C 1024.3 in /  34682.8 hPa NE 16.1 mph /  25.9 km/h 27.4 mph /  44.1 km/h 56 % 0.0 in /  0 mm
20:42 23.4 °F /  -4.8 °C 14.4 °F /  -9.8 °C 1024.3 in /  34682.8 hPa NE 17.7 mph /  28.5 km/h 27.4 mph /  44.1 km/h 57 % 0.0 in /  0 mm
20:52 23.2 °F /  -4.9 °C 14.5 °F /  -9.7 °C 1024.3 in /  34682.8 hPa ENE 11.3 mph /  18.2 km/h 27.4 mph /  44.1 km/h 58 % 0.0 in /  0 mm
20:57 23.1 °F /  -4.9 °C 14.4 °F /  -9.8 °C 1024.3 in /  34682.8 hPa ENE 14.5 mph /  23.3 km/h 25.7 mph /  41.4 km/h 58 % 0.0 in /  0 mm
21:02 22.9 °F /  -5.1 °C 14.5 °F /  -9.7 °C 1024.3 in /  34682.8 hPa NE 6.4 mph /  10.3 km/h 24.1 mph /  38.8 km/h 59 % 0.0 in /  0 mm
21:07 22.8 °F /  -5.1 °C 14.4 °F /  -9.8 °C 1024.6 in /  34693 hPa NE 9.7 mph /  15.6 km/h 20.9 mph /  33.6 km/h 59 % 0.0 in /  0 mm
21:12 22.7 °F /  -5.2 °C 14.3 °F /  -9.8 °C 1024.6 in /  34693 hPa NE 16.1 mph /  25.9 km/h 19.3 mph /  31.1 km/h 59 % 0.0 in /  0 mm
21:17 22.6 °F /  -5.2 °C 14.4 °F /  -9.8 °C 1024.6 in /  34693 hPa NE 11.3 mph /  18.2 km/h 20.9 mph /  33.6 km/h 60 % 0.0 in /  0 mm
21:22 22.4 °F /  -5.3 °C 14.3 °F /  -9.8 °C 1024.6 in /  34693 hPa NNE 12.9 mph /  20.8 km/h 22.5 mph /  36.2 km/h 60 % 0.0 in /  0 mm
21:27 22.3 °F /  -5.4 °C 14.4 °F /  -9.8 °C 1024.6 in /  34693 hPa NNE 9.7 mph /  15.6 km/h 22.5 mph /  36.2 km/h 61 % 0.0 in /  0 mm
21:32 22.2 °F /  -5.4 °C 14.6 °F /  -9.7 °C 1024.6 in /  34693 hPa NNE 11.3 mph /  18.2 km/h 22.5 mph /  36.2 km/h 62 % 0.0 in /  0 mm
21:37 22.1 °F /  -5.5 °C 14.5 °F /  -9.7 °C 1024.6 in /  34693 hPa NNE 9.7 mph /  15.6 km/h 20.9 mph /  33.6 km/h 62 % 0.0 in /  0 mm
21:42 21.8 °F /  -5.7 °C 14.4 °F /  -9.8 °C 1024.6 in /  34693 hPa ENE 8.0 mph /  12.9 km/h 19.3 mph /  31.1 km/h 63 % 0.0 in /  0 mm
21:52 21.3 °F /  -5.9 °C 14.5 °F /  -9.7 °C 1024.6 in /  34693 hPa NNE 11.3 mph /  18.2 km/h 16.1 mph /  25.9 km/h 65 % 0.0 in /  0 mm
21:57 21.4 °F /  -5.9 °C 14.5 °F /  -9.7 °C 1024.6 in /  34693 hPa NE 8.0 mph /  12.9 km/h 22.5 mph /  36.2 km/h 65 % 0.0 in /  0 mm
22:02 21.3 °F /  -5.9 °C 14.5 °F /  -9.7 °C 1024.6 in /  34693 hPa North 4.8 mph /  7.7 km/h 22.5 mph /  36.2 km/h 65 % 0.0 in /  0 mm
22:12 21.2 °F /  -6 °C 14.6 °F /  -9.7 °C 1024.6 in /  34693 hPa NE 14.5 mph /  23.3 km/h 20.9 mph /  33.6 km/h 66 % 0.0 in /  0 mm
22:17 21.1 °F /  -6.1 °C 14.5 °F /  -9.7 °C 1024.6 in /  34693 hPa NE 11.3 mph /  18.2 km/h 20.9 mph /  33.6 km/h 66 % 0.0 in /  0 mm
22:22 20.9 °F /  -6.2 °C 14.5 °F /  -9.7 °C 1024.6 in /  34693 hPa NE 12.9 mph /  20.8 km/h 25.7 mph /  41.4 km/h 67 % 0.0 in /  0 mm
22:27 20.9 °F /  -6.2 °C 14.5 °F /  -9.7 °C 1024.6 in /  34693 hPa NNE 8.0 mph /  12.9 km/h 25.7 mph /  41.4 km/h 67 % 0.0 in /  0 mm
22:32 20.8 °F /  -6.2 °C 14.4 °F /  -9.8 °C 1024.6 in /  34693 hPa ENE 16.1 mph /  25.9 km/h 25.7 mph /  41.4 km/h 67 % 0.0 in /  0 mm
22:37 20.8 °F /  -6.2 °C 14.4 °F /  -9.8 °C 1024.6 in /  34693 hPa NE 9.7 mph /  15.6 km/h 24.1 mph /  38.8 km/h 67 % 0.0 in /  0 mm
22:42 20.7 °F /  -6.3 °C 14.4 °F /  -9.8 °C 1024.6 in /  34693 hPa North 6.4 mph /  10.3 km/h 24.1 mph /  38.8 km/h 67 % 0.0 in /  0 mm
22:47 20.7 °F /  -6.3 °C 14.4 °F /  -9.8 °C 1024.6 in /  34693 hPa NE 14.5 mph /  23.3 km/h 22.5 mph /  36.2 km/h 67 % 0.0 in /  0 mm
22:52 20.7 °F /  -6.3 °C 14.6 °F /  -9.7 °C 1024.6 in /  34693 hPa NE 12.9 mph /  20.8 km/h 22.5 mph /  36.2 km/h 68 % 0.0 in /  0 mm
22:57 20.6 °F /  -6.3 °C 14.5 °F /  -9.7 °C 1024.6 in /  34693 hPa NE 16.1 mph /  25.9 km/h 22.5 mph /  36.2 km/h 68 % 0.0 in /  0 mm
23:02 20.4 °F /  -6.4 °C 14.3 °F /  -9.8 °C 1024.9 in /  34703.1 hPa NE 8.0 mph /  12.9 km/h 20.9 mph /  33.6 km/h 68 % 0.0 in /  0 mm
23:07 20.3 °F /  -6.5 °C 14.4 °F /  -9.8 °C 1024.9 in /  34703.1 hPa NNE 17.7 mph /  28.5 km/h 20.9 mph /  33.6 km/h 69 % 0.0 in /  0 mm
23:12 20.2 °F /  -6.6 °C 14.3 °F /  -9.8 °C 1024.9 in /  34703.1 hPa NNE 11.3 mph /  18.2 km/h 19.3 mph /  31.1 km/h 69 % 0.0 in /  0 mm
23:17 20.1 °F /  -6.6 °C 14.5 °F /  -9.7 °C 1024.9 in /  34703.1 hPa NE 6.4 mph /  10.3 km/h 19.3 mph /  31.1 km/h 70 % 0.0 in /  0 mm
23:22 20.1 °F /  -6.6 °C 14.5 °F /  -9.7 °C 1024.9 in /  34703.1 hPa NE 8.0 mph /  12.9 km/h 19.3 mph /  31.1 km/h 70 % 0.0 in /  0 mm
23:27 20.0 °F /  -6.7 °C 14.4 °F /  -9.8 °C 1024.9 in /  34703.1 hPa NE 11.3 mph /  18.2 km/h 20.9 mph /  33.6 km/h 70 % 0.0 in /  0 mm
23:32 19.9 °F /  -6.7 °C 14.3 °F /  -9.8 °C 1024.9 in /  34703.1 hPa NE 16.1 mph /  25.9 km/h 20.9 mph /  33.6 km/h 70 % 0.0 in /  0 mm
23:42 19.8 °F /  -6.8 °C 14.4 °F /  -9.8 °C 1024.9 in /  34703.1 hPa NE 11.3 mph /  18.2 km/h 19.3 mph /  31.1 km/h 71 % 0.0 in /  0 mm
23:47 19.7 °F /  -6.8 °C 14.3 °F /  -9.8 °C 1024.9 in /  34703.1 hPa NE 9.7 mph /  15.6 km/h 19.3 mph /  31.1 km/h 71 % 0.0 in /  0 mm
23:52 19.6 °F /  -6.9 °C 14.4 °F /  -9.8 °C 1024.9 in /  34703.1 hPa NNE 11.3 mph /  18.2 km/h 19.3 mph /  31.1 km/h 72 % 0.0 in /  0 mm
23:57 19.4 °F /  -7 °C 14.2 °F /  -9.9 °C 1024.9 in /  34703.1 hPa NNE 12.9 mph /  20.8 km/h 19.3 mph /  31.1 km/h 72 % 0.0 in /  0 mm
Meteo18
Compliments of Weather Underground - 4 mb

Script developed by  Jim McMurry - jmcmurry@mwt.net Adapted for the template by  Wim van der Kuil - Leuven-Template.eu

You find our weather info also at:

European Weather Network

Weather Underground

Equipment we use:

Weather-station
Davis Vue

Weather-program
Meteobridge

Weather-server
Raspberry PI 2 B+

Provider
1 and 1

Davis Vue

Meteobridge

Raspberry PI 2 B+

1 and 1